首页
METAR-TAF:

METAR-TAF

机场 :

塔兰托, 意大利

纬度: 40-31N, 经度: 017-24E, 海拔: 64米

当前天气观测

该预报发布于52分钟前的07:00 UTC
风速4节,风向东南
温度 6°C
湿度 100%
气压 1007 hPa
能见度10公里或以上
1500米以下无云,无积雨云

METAR: LIBG 100700Z 14004KT CAVOK 06/06 Q1007

时间: 08:52 (07:52 UTC)

预报

该预报发布于55分钟前的06:57 UTC
预报有效从10日的 08点(UTC)到 10日的 15点(UTC)
风速5节,风向多变
能见度10公里或以上
散云层高于3000英尺
短暂存在
从 10日的 12点(UTC)到 10日的 15点(UTC)

TAF: LIBG 100657Z 1008/1015 VRB05KT 9999 SCT030 TEMPO 1012/1015 RA

超过4000个机场的气象观测和天气预报(METAR&TAF报告)。

可查询的气象台以黄色和红色小点在地图上表示。

将鼠标移到小点上方,可查看气象台名称。

然后点击查看天气观测和预报。

如需切换地图:点击带黑十字的绿色按钮放大地图;点击带横线的绿色按钮缩小地图;或者点击绿色箭头查看邻近地区的地图。


METAR-TAF: